Time;durP1;ratioP1;P1;durP2;ratioP2;P2;SDS_P1;SDS_P2;PMS_P1;PMS_P2;Temp;Humidity;BMP_temperature;BMP_pressure;BME280_temperature;BME280_humidity;BME280_pressure;Samples;Min_cycle;Max_cycle;Signal;HPM_P1;HPM_P2
2022/11/09 00:01:18;;;;;;;13.85;3.67;;;;;;;;;;4899937;29;20065;-79
2022/11/09 00:03:44;;;;;;;13.80;3.60;;;;;;;;;;4899611;29;20066;-79
2022/11/09 00:06:10;;;;;;;11.48;3.85;;;;;;;;;;4899830;29;20045;-79
2022/11/09 00:08:37;;;;;;;12.93;4.18;;;;;;;;;;4898447;29;20529;-74
2022/11/09 00:11:04;;;;;;;13.35;3.90;;;;;;;;;;4900268;29;20055;-74
2022/11/09 00:13:30;;;;;;;13.32;4.55;;;;;;;;;;4900301;29;20381;-73
2022/11/09 00:16:00;;;;;;;12.10;5.10;;;;;;;;;;4899714;29;20120;-73
2022/11/09 00:18:27;;;;;;;13.23;4.80;;;;;;;;;;4898694;29;20400;-73
2022/11/09 00:20:53;;;;;;;13.23;5.20;;;;;;;;;;4899711;29;20136;-74
2022/11/09 00:23:19;;;;;;;;;;;;;;;;;;4900005;29;20401;-75
2022/11/09 00:25:46;;;;;;;13.82;4.78;;;;;;;;;;4899547;29;19924;-78
2022/11/09 00:28:12;;;;;;;12.88;4.70;;;;;;;;;;4899191;29;20512;-69
2022/11/09 00:30:39;;;;;;;13.40;5.38;;;;;;;;;;4899574;29;20052;-71
2022/11/09 00:33:05;;;;;;;13.15;4.15;;;;;;;;;;4898347;29;20049;-74
2022/11/09 00:35:31;;;;;;;12.18;4.32;;;;;;;;;;4899270;29;20044;-74
2022/11/09 00:37:57;;;;;;;13.10;4.68;;;;;;;;;;4899182;29;20049;-72
2022/11/09 00:40:23;;;;;;;14.88;4.53;;;;;;;;;;4899237;29;20505;-72
2022/11/09 00:42:49;;;;;;;10.55;4.53;;;;;;;;;;4899109;29;20414;-72
2022/11/09 00:45:15;;;;;;;12.93;5.00;;;;;;;;;;4899059;29;20430;-72
2022/11/09 00:47:41;;;;;;;;;;;;;;;;;;4883585;29;20052;-72
2022/11/09 00:50:07;;;;;;;15.13;5.00;;;;;;;;;;4899463;29;19931;-74
2022/11/09 00:52:34;;;;;;;14.25;4.88;;;;;;;;;;4899048;29;20486;-71
2022/11/09 00:55:00;;;;;;;11.55;4.75;;;;;;;;;;4898875;29;20052;-73
2022/11/09 00:57:26;;;;;;;13.70;4.72;;;;;;;;;;4898941;29;20135;-71
2022/11/09 00:59:52;;;;;;;12.90;4.75;;;;;;;;;;4898849;29;20053;-71
2022/11/09 01:02:19;;;;;;;12.15;5.25;;;;;;;;;;4898466;29;20560;-72
2022/11/09 01:04:45;;;;;;;13.15;4.93;;;;;;;;;;4899207;29;20493;-72
2022/11/09 01:07:11;;;;;;;19.13;5.50;;;;;;;;;;4898874;29;20065;-71
2022/11/09 01:09:37;;;;;;;16.13;5.95;;;;;;;;;;4898692;29;20049;-71
2022/11/09 01:12:03;;;;;;;16.35;5.50;;;;;;;;;;4898612;29;20087;-70
2022/11/09 01:14:29;;;;;;;13.75;6.00;;;;;;;;;;4897390;29;20048;-72
2022/11/09 01:16:55;;;;;;;13.02;5.45;;;;;;;;;;4898619;29;20040;-72
2022/11/09 01:19:21;;;;;;;13.65;5.05;;;;;;;;;;4898497;29;20052;-72
2022/11/09 01:21:47;;;;;;;12.32;4.95;;;;;;;;;;4898749;29;20052;-71
2022/11/09 01:24:13;;;;;;;11.25;4.57;;;;;;;;;;4898335;29;20485;-72
2022/11/09 01:26:39;;;;;;;15.55;5.07;;;;;;;;;;4897218;29;20087;-73
2022/11/09 01:29:05;;;;;;;12.63;4.68;;;;;;;;;;4898783;29;20347;-72
2022/11/09 01:31:31;;;;;;;18.80;4.90;;;;;;;;;;4898360;29;20140;-73
2022/11/09 01:33:57;;;;;;;15.07;4.95;;;;;;;;;;4898259;29;20520;-74
2022/11/09 01:36:24;;;;;;;13.07;4.40;;;;;;;;;;4898638;29;20442;-73
2022/11/09 01:38:50;;;;;;;14.20;4.38;;;;;;;;;;4898247;29;20113;-75
2022/11/09 01:41:18;;;;;;;14.00;4.43;;;;;;;;;;4898050;29;20420;-74
2022/11/09 01:43:45;;;;;;;11.73;4.53;;;;;;;;;;4898167;29;20096;-76
2022/11/09 01:46:14;;;;;;;16.88;4.80;;;;;;;;;;4898650;29;20048;-71
2022/11/09 01:48:46;;;;;;;14.57;4.32;;;;;;;;;;4898126;29;20048;-79
2022/11/09 01:51:15;;;;;;;15.43;4.85;;;;;;;;;;4897058;29;20055;-85
2022/11/09 01:53:43;;;;;;;17.10;4.97;;;;;;;;;;4881771;29;20044;-74
2022/11/09 01:56:10;;;;;;;16.80;5.00;;;;;;;;;;4898190;29;20044;-79
2022/11/09 01:58:46;;;;;;;17.88;5.80;;;;;;;;;;4898161;29;20486;-72
2022/11/09 02:01:13;;;;;;;18.40;5.50;;;;;;;;;;4897565;29;20045;-78
2022/11/09 02:03:47;;;;;;;14.23;4.93;;;;;;;;;;4881485;29;20059;-80
2022/11/09 02:06:14;;;;;;;15.25;5.30;;;;;;;;;;4898031;29;20048;-77
2022/11/09 02:08:44;;;;;;;15.30;5.28;;;;;;;;;;4897773;29;20528;-74
2022/11/09 02:11:15;;;;;;;16.48;5.78;;;;;;;;;;4897995;29;20044;-80
2022/11/09 02:13:43;;;;;;;16.38;5.18;;;;;;;;;;4898624;29;20045;-72
2022/11/09 02:16:10;;;;;;;18.35;4.95;;;;;;;;;;4898002;29;20047;-81
2022/11/09 02:18:39;;;;;;;16.83;5.35;;;;;;;;;;4897962;29;20104;-82
2022/11/09 02:21:05;;;;;;;16.05;5.03;;;;;;;;;;4898007;29;20055;-87
2022/11/09 02:23:31;;;;;;;16.30;4.97;;;;;;;;;;4897557;29;20125;-87
2022/11/09 02:26:06;;;;;;;18.10;5.05;;;;;;;;;;4898010;29;20052;-86
2022/11/09 02:28:34;;;;;;;17.33;5.10;;;;;;;;;;4898662;29;20075;-90
2022/11/09 02:31:00;;;;;;;16.85;4.93;;;;;;;;;;4898462;29;20084;-78
2022/11/09 02:33:26;;;;;;;;;;;;;;;;;;4898119;29;20099;-72
2022/11/09 02:35:52;;;;;;;15.38;4.38;;;;;;;;;;4897733;29;19923;-75
2022/11/09 02:38:18;;;;;;;17.55;4.97;;;;;;;;;;4897489;29;20059;-77
2022/11/09 02:40:46;;;;;;;15.70;4.80;;;;;;;;;;4897656;29;20049;-82
2022/11/09 02:43:14;;;;;;;18.63;5.20;;;;;;;;;;4897673;29;20088;-79
2022/11/09 02:45:40;;;;;;;18.38;4.80;;;;;;;;;;4898394;29;20088;-85
2022/11/09 02:48:06;;;;;;;16.67;5.05;;;;;;;;;;4897202;29;20075;-87
2022/11/09 02:50:33;;;;;;;17.73;4.72;;;;;;;;;;4897333;29;20147;-84
2022/11/09 02:52:59;;;;;;;14.90;4.60;;;;;;;;;;4897761;29;20400;-77
2022/11/09 02:55:25;;;;;;;19.70;5.47;;;;;;;;;;4897656;29;20123;-72
2022/11/09 02:57:51;;;;;;;14.95;4.70;;;;;;;;;;4897992;29;20394;-78
2022/11/09 03:00:17;;;;;;;15.70;4.82;;;;;;;;;;4897628;29;20057;-79
2022/11/09 03:02:43;;;;;;;15.52;4.55;;;;;;;;;;4896560;29;20044;-81
2022/11/09 03:05:09;;;;;;;18.73;5.05;;;;;;;;;;4898081;29;20103;-78
2022/11/09 03:07:35;;;;;;;16.65;4.47;;;;;;;;;;4897541;29;20045;-81
2022/11/09 03:10:01;;;;;;;17.85;4.97;;;;;;;;;;4896293;29;20048;-79
2022/11/09 03:12:30;;;;;;;15.93;4.88;;;;;;;;;;4897893;29;20051;-84
2022/11/09 03:14:57;;;;;;;14.63;4.68;;;;;;;;;;4899181;29;20092;-73
2022/11/09 03:17:23;;;;;;;17.65;4.53;;;;;;;;;;4900650;29;20048;-81
2022/11/09 03:19:49;;;;;;;25.20;5.15;;;;;;;;;;4900972;29;20053;-76
2022/11/09 03:22:15;;;;;;;13.50;4.28;;;;;;;;;;4899938;29;20048;-75
2022/11/09 03:24:41;;;;;;;17.65;4.95;;;;;;;;;;4900542;29;20182;-77
2022/11/09 03:27:07;;;;;;;17.80;4.55;;;;;;;;;;4900608;29;20044;-77
2022/11/09 03:29:33;;;;;;;16.23;4.65;;;;;;;;;;4899586;29;20056;-81
2022/11/09 03:31:59;;;;;;;16.52;4.10;;;;;;;;;;4899456;29;20057;-76
2022/11/09 03:34:25;;;;;;;17.90;4.93;;;;;;;;;;4900165;29;20048;-79
2022/11/09 03:36:51;;;;;;;17.58;4.80;;;;;;;;;;4899495;29;20056;-78
2022/11/09 03:39:17;;;;;;;18.88;5.00;;;;;;;;;;4900913;29;20135;-68
2022/11/09 03:41:43;;;;;;;20.15;4.60;;;;;;;;;;4900245;29;20112;-70
2022/11/09 03:44:09;;;;;;;16.65;4.30;;;;;;;;;;4900206;29;20064;-67
2022/11/09 03:46:35;;;;;;;18.85;4.40;;;;;;;;;;4899032;29;20111;-70
2022/11/09 03:49:01;;;;;;;14.40;4.10;;;;;;;;;;4900228;29;20049;-72
2022/11/09 03:51:27;;;;;;;17.75;4.25;;;;;;;;;;4899680;29;20100;-72
2022/11/09 03:53:53;;;;;;;15.70;4.03;;;;;;;;;;4899994;29;20049;-71
2022/11/09 03:56:19;;;;;;;17.35;4.57;;;;;;;;;;4900083;29;20055;-72
2022/11/09 03:58:46;;;;;;;18.77;4.15;;;;;;;;;;4899915;29;20056;-69
2022/11/09 04:01:12;;;;;;;18.40;4.28;;;;;;;;;;4900029;29;20096;-75
2022/11/09 04:03:38;;;;;;;18.50;4.22;;;;;;;;;;4899604;29;20056;-72
2022/11/09 04:06:04;;;;;;;17.73;4.20;;;;;;;;;;4899845;29;20053;-70
2022/11/09 04:08:30;;;;;;;;;;;;;;;;;;4900538;29;20045;-72
2022/11/09 04:10:56;;;;;;;18.63;4.40;;;;;;;;;;4899771;29;19927;-73
2022/11/09 04:13:22;;;;;;;16.33;3.90;;;;;;;;;;4898699;29;20232;-71
2022/11/09 04:15:48;;;;;;;21.85;4.35;;;;;;;;;;4899627;29;20045;-71
2022/11/09 04:18:15;;;;;;;18.73;4.15;;;;;;;;;;4899826;29;20056;-73
2022/11/09 04:20:42;;;;;;;19.55;4.45;;;;;;;;;;4899721;29;20393;-71
2022/11/09 04:23:09;;;;;;;22.08;4.53;;;;;;;;;;4899296;29;20479;-71
2022/11/09 04:25:36;;;;;;;16.50;4.45;;;;;;;;;;4898731;29;20097;-72
2022/11/09 04:28:04;;;;;;;23.20;4.40;;;;;;;;;;4899702;29;20052;-73
2022/11/09 04:30:30;;;;;;;18.95;4.20;;;;;;;;;;4899416;29;20048;-70
2022/11/09 04:32:57;;;;;;;18.60;4.63;;;;;;;;;;4899859;29;20053;-72
2022/11/09 04:35:23;;;;;;;19.48;4.10;;;;;;;;;;4898186;29;20044;-73
2022/11/09 04:37:49;;;;;;;;;;;;;;;;;;4899997;29;20154;-72
2022/11/09 04:40:15;;;;;;;18.08;3.67;;;;;;;;;;4899330;29;20392;-71
2022/11/09 04:42:41;;;;;;;18.65;3.85;;;;;;;;;;4899247;29;20045;-71
2022/11/09 04:45:07;;;;;;;14.65;3.75;;;;;;;;;;4898105;29;20382;-71
2022/11/09 04:47:33;;;;;;;19.35;4.20;;;;;;;;;;4899085;29;20044;-72
2022/11/09 04:49:59;;;;;;;16.45;3.95;;;;;;;;;;4898062;29;20165;-72
2022/11/09 04:52:26;;;;;;;15.63;3.70;;;;;;;;;;4898921;29;20084;-72
2022/11/09 04:54:52;;;;;;;19.42;4.40;;;;;;;;;;4898973;29;20092;-75
2022/11/09 04:57:18;;;;;;;15.00;4.15;;;;;;;;;;4898589;29;20104;-73
2022/11/09 04:59:44;;;;;;;15.50;4.35;;;;;;;;;;4898774;29;20099;-75
2022/11/09 05:02:10;;;;;;;15.98;3.83;;;;;;;;;;4898273;29;20088;-74
2022/11/09 05:04:36;;;;;;;19.80;4.22;;;;;;;;;;4897675;29;20056;-71
2022/11/09 05:07:02;;;;;;;14.18;3.70;;;;;;;;;;4898521;29;20052;-75
2022/11/09 05:09:28;;;;;;;13.93;3.85;;;;;;;;;;4898636;29;20057;-73
2022/11/09 05:11:54;;;;;;;19.13;4.13;;;;;;;;;;4898520;29;20110;-70
2022/11/09 05:14:20;;;;;;;17.83;4.43;;;;;;;;;;4899208;29;20052;-72
2022/11/09 05:16:46;;;;;;;16.00;4.20;;;;;;;;;;4898259;29;20510;-71
2022/11/09 05:19:12;;;;;;;15.68;4.35;;;;;;;;;;4899363;29;20485;-72
2022/11/09 05:21:38;;;;;;;14.82;4.32;;;;;;;;;;4898339;29;20059;-70
2022/11/09 05:24:04;;;;;;;16.05;4.38;;;;;;;;;;4899175;29;20140;-72
2022/11/09 05:26:35;;;;;;;18.65;4.97;;;;;;;;;;4898484;29;20088;-72
2022/11/09 05:29:02;;;;;;;18.70;4.63;;;;;;;;;;4898108;29;20513;-71
2022/11/09 05:31:28;;;;;;;14.80;4.55;;;;;;;;;;4897438;29;20044;-72
2022/11/09 05:33:55;;;;;;;21.35;4.75;;;;;;;;;;4898324;29;20056;-73
2022/11/09 05:36:21;;;;;;;;;;;;;;;;;;4897826;29;20044;-70
2022/11/09 05:38:47;;;;;;;16.13;3.97;;;;;;;;;;4898243;29;20265;-75
2022/11/09 05:41:13;;;;;;;;;;;;;;;;;;4898597;29;20060;-71
2022/11/09 05:43:39;;;;;;;17.73;4.43;;;;;;;;;;4898182;29;19953;-75
2022/11/09 05:46:06;;;;;;;16.40;4.32;;;;;;;;;;4898112;29;20053;-73
2022/11/09 05:48:32;;;;;;;14.75;4.03;;;;;;;;;;4898611;29;20048;-73
2022/11/09 05:51:01;;;;;;;18.55;4.63;;;;;;;;;;4898274;29;20045;-73
2022/11/09 05:53:28;;;;;;;20.13;4.90;;;;;;;;;;4897823;29;20184;-74
2022/11/09 05:55:54;;;;;;;14.43;3.70;;;;;;;;;;4898018;29;20040;-71
2022/11/09 05:58:20;;;;;;;14.43;4.47;;;;;;;;;;4897620;29;20620;-72
2022/11/09 06:00:46;;;;;;;15.00;4.13;;;;;;;;;;4896916;29;20048;-69
2022/11/09 06:03:12;;;;;;;22.48;4.78;;;;;;;;;;4897341;29;20056;-69
2022/11/09 06:05:39;;;;;;;17.20;4.47;;;;;;;;;;4897256;29;20465;-72
2022/11/09 06:08:06;;;;;;;16.98;4.40;;;;;;;;;;4898485;29;20389;-70
2022/11/09 06:10:33;;;;;;;19.85;4.70;;;;;;;;;;4898286;29;20120;-71
2022/11/09 06:12:59;;;;;;;17.50;4.40;;;;;;;;;;4897955;29;20056;-72
2022/11/09 06:15:25;;;;;;;15.82;3.88;;;;;;;;;;4897112;29;20106;-70
2022/11/09 06:17:52;;;;;;;16.17;4.40;;;;;;;;;;4897884;29;20093;-76
2022/11/09 06:20:18;;;;;;;14.82;4.30;;;;;;;;;;4897950;29;20048;-71
2022/11/09 06:22:44;;;;;;;15.43;4.38;;;;;;;;;;4897851;29;20053;-74
2022/11/09 06:25:10;;;;;;;13.23;4.07;;;;;;;;;;4897816;29;20118;-71
2022/11/09 06:27:36;;;;;;;20.58;4.25;;;;;;;;;;4897793;29;20135;-69
2022/11/09 06:30:02;;;;;;;17.73;4.70;;;;;;;;;;4896763;29;20048;-74
2022/11/09 06:32:28;;;;;;;16.02;4.43;;;;;;;;;;4898187;29;20434;-76
2022/11/09 06:34:54;;;;;;;16.10;4.22;;;;;;;;;;4896587;29;20166;-70
2022/11/09 06:37:20;;;;;;;18.90;4.50;;;;;;;;;;4896332;29;20201;-72
2022/11/09 06:39:47;;;;;;;23.45;5.05;;;;;;;;;;4897745;29;20048;-71
2022/11/09 06:42:13;;;;;;;25.00;4.80;;;;;;;;;;4897958;29;20079;-69
2022/11/09 06:44:39;;;;;;;17.25;4.50;;;;;;;;;;4897871;29;20045;-74
2022/11/09 06:47:05;;;;;;;16.08;4.15;;;;;;;;;;4897857;29;20377;-71
2022/11/09 06:49:31;;;;;;;21.17;4.63;;;;;;;;;;4901132;29;20048;-71
2022/11/09 06:51:57;;;;;;;18.40;4.28;;;;;;;;;;4900157;29;20158;-72
2022/11/09 06:54:23;;;;;;;17.55;4.05;;;;;;;;;;4900471;29;20088;-73
2022/11/09 06:56:49;;;;;;;19.08;4.32;;;;;;;;;;4899872;29;20056;-72
2022/11/09 06:59:15;;;;;;;18.45;4.38;;;;;;;;;;4900999;29;20507;-71
2022/11/09 07:01:41;;;;;;;14.77;4.07;;;;;;;;;;4899834;29;20095;-68
2022/11/09 07:04:07;;;;;;;20.48;4.53;;;;;;;;;;4868682;29;20128;-68
2022/11/09 07:06:33;;;;;;;19.58;4.43;;;;;;;;;;4900709;29;20057;-69
2022/11/09 07:08:59;;;;;;;17.42;4.03;;;;;;;;;;4901615;29;20056;-68
2022/11/09 07:11:25;;;;;;;17.35;4.38;;;;;;;;;;4900909;29;20061;-74
2022/11/09 07:13:51;;;;;;;19.08;4.10;;;;;;;;;;4899632;29;20055;-70
2022/11/09 07:16:17;;;;;;;16.20;4.32;;;;;;;;;;4900773;29;20091;-72
2022/11/09 07:18:44;;;;;;;17.83;4.68;;;;;;;;;;4900606;29;20143;-74
2022/11/09 07:21:11;;;;;;;18.08;4.47;;;;;;;;;;4899701;29;20441;-72
2022/11/09 07:23:37;;;;;;;;;;;;;;;;;;4901016;29;20093;-69
2022/11/09 07:26:03;;;;;;;13.48;4.25;;;;;;;;;;4900100;29;19973;-70
2022/11/09 07:28:29;;;;;;;;;;;;;;;;;;4901067;29;20060;-72
2022/11/09 07:30:57;;;;;;;19.95;4.53;;;;;;;;;;4900875;29;20391;-68
2022/11/09 07:33:23;;;;;;;18.35;4.40;;;;;;;;;;4900474;29;20055;-69
2022/11/09 07:35:50;;;;;;;19.58;4.68;;;;;;;;;;4900183;29;20055;-72
2022/11/09 07:38:18;;;;;;;15.57;3.72;;;;;;;;;;4900053;29;20049;-68
2022/11/09 07:40:44;;;;;;;16.65;4.15;;;;;;;;;;4900903;29;20087;-66
2022/11/09 07:43:11;;;;;;;22.60;4.28;;;;;;;;;;4900268;29;20056;-69
2022/11/09 07:45:37;;;;;;;14.75;3.90;;;;;;;;;;4898421;29;20055;-69
2022/11/09 07:48:05;;;;;;;17.02;4.63;;;;;;;;;;4900574;29;20092;-75
2022/11/09 07:50:32;;;;;;;16.33;4.40;;;;;;;;;;4899743;29;20052;-71
2022/11/09 07:52:59;;;;;;;19.45;4.47;;;;;;;;;;4900016;29;20107;-68
2022/11/09 07:55:26;;;;;;;18.30;4.57;;;;;;;;;;4900279;29;20056;-74
2022/11/09 07:57:59;;;;;;;18.77;3.83;;;;;;;;;;4898646;29;20079;-70
2022/11/09 08:00:25;;;;;;;20.52;4.70;;;;;;;;;;4898971;29;20053;-71
2022/11/09 08:02:51;;;;;;;15.65;4.00;;;;;;;;;;4899427;29;20501;-71
2022/11/09 08:05:18;;;;;;;18.88;4.32;;;;;;;;;;4899824;29;20143;-68
2022/11/09 08:07:44;;;;;;;19.02;4.38;;;;;;;;;;4899177;29;20052;-70
2022/11/09 08:10:10;;;;;;;15.43;4.15;;;;;;;;;;4899625;29;20215;-64
2022/11/09 08:12:36;;;;;;;16.92;4.20;;;;;;;;;;4897830;29;20045;-70
2022/11/09 08:15:02;;;;;;;17.65;4.68;;;;;;;;;;4898188;29;20076;-70
2022/11/09 08:17:28;;;;;;;16.20;4.13;;;;;;;;;;4899733;29;20048;-66
2022/11/09 08:19:54;;;;;;;17.38;4.60;;;;;;;;;;4899108;29;20049;-68
2022/11/09 08:22:20;;;;;;;16.10;4.47;;;;;;;;;;4899317;29;20128;-69
2022/11/09 08:24:46;;;;;;;20.65;4.65;;;;;;;;;;4899723;29;20052;-67
2022/11/09 08:27:12;;;;;;;18.30;4.53;;;;;;;;;;4899304;29;20084;-70
2022/11/09 08:29:38;;;;;;;18.55;4.82;;;;;;;;;;4899467;29;20052;-64
2022/11/09 08:32:04;;;;;;;16.35;4.15;;;;;;;;;;4899469;29;20079;-66
2022/11/09 08:34:30;;;;;;;20.48;4.20;;;;;;;;;;4899647;29;20048;-71
2022/11/09 08:36:59;;;;;;;16.23;4.55;;;;;;;;;;4899197;29;20059;-68
2022/11/09 08:39:25;;;;;;;22.40;5.03;;;;;;;;;;4898127;29;20052;-68
2022/11/09 08:41:51;;;;;;;18.02;4.07;;;;;;;;;;4899298;29;20052;-69
2022/11/09 08:44:18;;;;;;;18.73;4.63;;;;;;;;;;4899175;29;20049;-70
2022/11/09 08:46:44;;;;;;;15.57;4.05;;;;;;;;;;4899517;29;20044;-72
2022/11/09 08:49:10;;;;;;;18.20;4.22;;;;;;;;;;4899116;29;20044;-69
2022/11/09 08:51:36;;;;;;;18.58;4.47;;;;;;;;;;4899540;29;20052;-68
2022/11/09 08:54:02;;;;;;;17.90;4.75;;;;;;;;;;4898545;29;20131;-69
2022/11/09 08:56:28;;;;;;;21.08;4.35;;;;;;;;;;4899464;29;20041;-69
2022/11/09 08:58:54;;;;;;;17.92;4.22;;;;;;;;;;4897488;29;20489;-66
2022/11/09 09:01:20;;;;;;;19.63;4.88;;;;;;;;;;4898724;29;20509;-71
2022/11/09 09:03:46;;;;;;;23.83;5.22;;;;;;;;;;4897699;29;20060;-66
2022/11/09 09:06:13;;;;;;;14.55;4.25;;;;;;;;;;4899075;29;20135;-68
2022/11/09 09:08:39;;;;;;;18.30;3.95;;;;;;;;;;4898755;29;20091;-66
2022/11/09 09:11:05;;;;;;;17.27;4.50;;;;;;;;;;4882214;29;20056;-69
2022/11/09 09:13:32;;;;;;;17.10;4.15;;;;;;;;;;4898953;29;20075;-70
2022/11/09 09:15:58;;;;;;;19.13;4.40;;;;;;;;;;4898583;29;20080;-74
2022/11/09 09:18:24;;;;;;;16.17;4.22;;;;;;;;;;4897657;29;20049;-74
2022/11/09 09:20:50;;;;;;;16.27;4.32;;;;;;;;;;4898581;29;20092;-69
2022/11/09 09:23:16;;;;;;;21.63;5.35;;;;;;;;;;4898071;29;20053;-70
2022/11/09 09:25:43;;;;;;;19.27;4.60;;;;;;;;;;4897039;29;20051;-68
2022/11/09 09:28:09;;;;;;;19.60;4.55;;;;;;;;;;4898845;29;20044;-69
2022/11/09 09:30:35;;;;;;;16.13;4.40;;;;;;;;;;4898347;29;20052;-67
2022/11/09 09:33:01;;;;;;;21.17;4.32;;;;;;;;;;4898358;29;20060;-68
2022/11/09 09:35:27;;;;;;;18.58;4.72;;;;;;;;;;4898249;29;20193;-67
2022/11/09 09:37:53;;;;;;;;;;;;;;;;;;4898916;29;20397;-73
2022/11/09 09:40:26;;;;;;;16.70;4.47;;;;;;;;;;4898534;29;19924;-69
2022/11/09 09:42:53;;;;;;;22.10;4.97;;;;;;;;;;4898569;29;20048;-72
2022/11/09 09:45:20;;;;;;;21.00;4.63;;;;;;;;;;4897044;29;20388;-71
2022/11/09 09:47:55;;;;;;;20.77;4.40;;;;;;;;;;4898138;29;20131;-69
2022/11/09 09:50:24;;;;;;;18.77;3.97;;;;;;;;;;4898025;29;20048;-73
2022/11/09 09:53:03;;;;;;;17.30;4.70;;;;;;;;;;4897692;29;20083;-68
2022/11/09 09:55:29;;;;;;;17.67;4.90;;;;;;;;;;4897748;29;20107;-67
2022/11/09 09:57:58;;;;;;;23.83;4.60;;;;;;;;;;4898183;29;20052;-68
2022/11/09 10:00:26;;;;;;;17.13;4.85;;;;;;;;;;4896587;29;20087;-73
2022/11/09 10:02:53;;;;;;;16.73;4.57;;;;;;;;;;4898107;29;20393;-67
2022/11/09 10:05:20;;;;;;;18.35;4.38;;;;;;;;;;4896697;29;20053;-69
2022/11/09 10:07:46;;;;;;;20.95;5.22;;;;;;;;;;4898242;29;20048;-67
2022/11/09 10:10:24;;;;;;;19.40;4.97;;;;;;;;;;4897461;29;20143;-68
2022/11/09 10:13:09;;;;;;;16.63;4.45;;;;;;;;;;4897450;29;20084;-75
2022/11/09 10:15:40;;;;;;;16.13;4.72;;;;;;;;;;4897811;29;20084;-68
2022/11/09 10:18:06;;;;;;;16.15;5.10;;;;;;;;;;4897015;29;20060;-68
2022/11/09 10:20:38;;;;;;;20.15;5.05;;;;;;;;;;4898430;29;20125;-68
2022/11/09 10:23:23;;;;;;;20.73;5.40;;;;;;;;;;4899337;29;20410;-71
2022/11/09 10:25:53;;;;;;;17.92;5.22;;;;;;;;;;4901321;29;20049;-69
2022/11/09 10:28:22;;;;;;;20.95;5.03;;;;;;;;;;4900534;29;20049;-70
2022/11/09 10:30:49;;;;;;;19.45;5.43;;;;;;;;;;4901401;29;20056;-70
2022/11/09 10:33:19;;;;;;;17.65;5.18;;;;;;;;;;4901490;29;20055;-69
2022/11/09 10:36:00;;;;;;;21.85;6.32;;;;;;;;;;4901875;29;20096;-70
2022/11/09 10:38:35;;;;;;;21.58;5.50;;;;;;;;;;4899672;29;20049;-67
2022/11/09 10:41:06;;;;;;;17.08;5.13;;;;;;;;;;4900811;29;20490;-73
2022/11/09 10:43:32;;;;;;;21.02;6.40;;;;;;;;;;4901848;29;20112;-67
2022/11/09 10:46:03;;;;;;;16.45;5.57;;;;;;;;;;4901595;29;20049;-75
2022/11/09 10:48:35;;;;;;;18.45;5.93;;;;;;;;;;4901350;29;20048;-76
2022/11/09 10:51:01;;;;;;;22.08;5.65;;;;;;;;;;4901437;29;20507;-70
2022/11/09 10:53:28;;;;;;;20.65;6.30;;;;;;;;;;4900401;29;20458;-69
2022/11/09 10:56:04;;;;;;;18.17;5.65;;;;;;;;;;4899425;29;20057;-68
2022/11/09 10:58:31;;;;;;;18.58;6.13;;;;;;;;;;4900893;29;20135;-66
2022/11/09 11:01:13;;;;;;;18.25;6.15;;;;;;;;;;4900998;29;20099;-70
2022/11/09 11:03:39;;;;;;;17.98;6.22;;;;;;;;;;4900848;29;20402;-66
2022/11/09 11:06:06;;;;;;;18.83;6.05;;;;;;;;;;4901492;29;20439;-68
2022/11/09 11:08:33;;;;;;;22.35;6.20;;;;;;;;;;4900609;29;20048;-66
2022/11/09 11:11:19;;;;;;;21.95;6.57;;;;;;;;;;4899554;29;20057;-68
2022/11/09 11:13:47;;;;;;;18.58;5.82;;;;;;;;;;4900636;29;20095;-64
2022/11/09 11:16:14;;;;;;;24.17;6.57;;;;;;;;;;4899780;29;20109;-69
2022/11/09 11:18:43;;;;;;;18.50;5.40;;;;;;;;;;4900615;29;20056;-64
2022/11/09 11:21:20;;;;;;;16.52;5.57;;;;;;;;;;4899452;29;20056;-66
2022/11/09 11:24:05;;;;;;;14.43;5.32;;;;;;;;;;4899762;29;20049;-66
2022/11/09 11:26:34;;;;;;;16.52;5.82;;;;;;;;;;4899050;29;20523;-66
2022/11/09 11:29:01;;;;;;;16.85;5.68;;;;;;;;;;4899931;29;20048;-64
2022/11/09 11:31:27;;;;;;;16.60;5.57;;;;;;;;;;4899428;29;20064;-64
2022/11/09 11:33:53;;;;;;;16.52;6.30;;;;;;;;;;4898502;29;20563;-66
2022/11/09 11:36:38;;;;;;;20.42;5.50;;;;;;;;;;4898607;29;20052;-69
2022/11/09 11:39:28;;;;;;;20.08;5.82;;;;;;;;;;4899058;29;20067;-70
2022/11/09 11:42:12;;;;;;;17.23;5.57;;;;;;;;;;4899495;29;20048;-72
2022/11/09 11:44:38;;;;;;;16.80;5.47;;;;;;;;;;4899974;29;20089;-69
2022/11/09 11:47:19;;;;;;;19.75;5.68;;;;;;;;;;4899408;29;20119;-67
2022/11/09 11:49:56;;;;;;;19.05;5.82;;;;;;;;;;4899376;29;20084;-67
2022/11/09 11:52:28;;;;;;;16.05;5.50;;;;;;;;;;4900276;29;20077;-70
2022/11/09 11:55:00;;;;;;;20.83;5.88;;;;;;;;;;4898241;29;20095;-65
2022/11/09 11:57:32;;;;;;;18.55;5.13;;;;;;;;;;4897486;29;20104;-67
2022/11/09 12:00:12;;;;;;;17.80;5.32;;;;;;;;;;4898135;29;20049;-71
2022/11/09 12:03:04;;;;;;;19.80;6.18;;;;;;;;;;4899214;29;20048;-74
2022/11/09 12:05:30;;;;;;;16.98;5.68;;;;;;;;;;4899321;29;20061;-67
2022/11/09 12:08:15;;;;;;;14.07;5.38;;;;;;;;;;4899213;29;20048;-73
2022/11/09 12:10:48;;;;;;;19.40;5.55;;;;;;;;;;4898770;29;20060;-69
2022/11/09 12:13:26;;;;;;;15.80;5.35;;;;;;;;;;4899070;29;20536;-67
2022/11/09 12:15:59;;;;;;;19.25;5.80;;;;;;;;;;4898820;29;20142;-67
2022/11/09 12:18:25;;;;;;;15.30;6.00;;;;;;;;;;4899348;29;20058;-67
2022/11/09 12:20:51;;;;;;;24.65;6.45;;;;;;;;;;4883269;29;20052;-67
2022/11/09 12:23:24;;;;;;;20.63;6.63;;;;;;;;;;4899137;29;20055;-68
2022/11/09 12:26:22;;;;;;;19.23;6.32;;;;;;;;;;4898762;29;20449;-66
2022/11/09 12:29:03;;;;;;;21.10;6.40;;;;;;;;;;4897280;29;20060;-67
2022/11/09 12:31:34;;;;;;;20.40;5.97;;;;;;;;;;4899177;29;20136;-70
2022/11/09 12:34:21;;;;;;;17.25;5.93;;;;;;;;;;4899508;29;20049;-68
2022/11/09 12:36:50;;;;;;;25.42;6.97;;;;;;;;;;4897380;29;20059;-69
2022/11/09 12:39:27;;;;;;;20.63;6.18;;;;;;;;;;4898500;29;20049;-67
2022/11/09 12:41:55;;;;;;;22.98;7.22;;;;;;;;;;4898599;29;20056;-66
2022/11/09 12:44:24;;;;;;;18.45;6.38;;;;;;;;;;4898785;29;20152;-66
2022/11/09 12:46:54;;;;;;;20.30;6.53;;;;;;;;;;4898410;29;20067;-66
2022/11/09 12:49:35;;;;;;;18.42;6.07;;;;;;;;;;4899207;29;20143;-70
2022/11/09 12:52:03;;;;;;;23.50;6.35;;;;;;;;;;4898999;29;20052;-65
2022/11/09 12:54:29;;;;;;;18.63;6.10;;;;;;;;;;4898563;29;20093;-68
2022/11/09 12:56:55;;;;;;;;;;;;;;;;;;4899056;29;20052;-68
2022/11/09 12:59:33;;;;;;;16.45;5.40;;;;;;;;;;4898910;29;19923;-68
2022/11/09 13:02:00;;;;;;;18.65;6.05;;;;;;;;;;4897666;29;20081;-71
2022/11/09 13:04:26;;;;;;;18.38;5.30;;;;;;;;;;4898473;29;20246;-68
2022/11/09 13:07:11;;;;;;;22.77;5.93;;;;;;;;;;4898168;29;20474;-67
2022/11/09 13:09:37;;;;;;;17.95;5.88;;;;;;;;;;4898716;29;20059;-72
2022/11/09 13:12:22;;;;;;;19.73;6.60;;;;;;;;;;4882000;29;20056;-69
2022/11/09 13:14:48;;;;;;;18.23;6.25;;;;;;;;;;4897335;29;20060;-66
2022/11/09 13:17:23;;;;;;;18.15;6.35;;;;;;;;;;4897395;29;20485;-67
2022/11/09 13:19:51;;;;;;;25.15;6.78;;;;;;;;;;4897076;29;20052;-70
2022/11/09 13:22:20;;;;;;;20.35;6.47;;;;;;;;;;4896859;29;20442;-68
2022/11/09 13:24:50;;;;;;;20.50;6.25;;;;;;;;;;4897421;29;20377;-65
2022/11/09 13:27:35;;;;;;;18.65;6.00;;;;;;;;;;4897406;29;20048;-65
2022/11/09 13:30:02;;;;;;;17.73;5.82;;;;;;;;;;4897651;29;20063;-67
2022/11/09 13:32:30;;;;;;;19.80;6.10;;;;;;;;;;4895977;29;20053;-69
2022/11/09 13:34:59;;;;;;;20.17;5.70;;;;;;;;;;4897115;29;20056;-65
2022/11/09 13:37:40;;;;;;;18.52;6.05;;;;;;;;;;4897668;29;20048;-68
2022/11/09 13:40:25;;;;;;;20.25;5.95;;;;;;;;;;4896858;29;20584;-66
2022/11/09 13:43:04;;;;;;;16.65;5.90;;;;;;;;;;4895996;29;20075;-69
2022/11/09 13:45:38;;;;;;;15.27;5.43;;;;;;;;;;4896703;29;20087;-64
2022/11/09 13:48:05;;;;;;;15.05;5.13;;;;;;;;;;4896719;29;20048;-64
2022/11/09 13:50:32;;;;;;;17.70;5.88;;;;;;;;;;4895443;29;20057;-64
2022/11/09 13:52:59;;;;;;;15.02;5.80;;;;;;;;;;4897055;29;20045;-65
2022/11/09 13:55:31;;;;;;;12.85;4.95;;;;;;;;;;4896609;29;20060;-67
2022/11/09 13:57:59;;;;;;;14.10;4.30;;;;;;;;;;4896470;29;20056;-65
2022/11/09 14:00:25;;;;;;;14.10;4.57;;;;;;;;;;4897037;29;20075;-64
2022/11/09 14:02:53;;;;;;;17.70;4.82;;;;;;;;;;4896443;29;20112;-65
2022/11/09 14:05:30;;;;;;;15.93;5.38;;;;;;;;;;4896670;29;20095;-66
2022/11/09 14:08:00;;;;;;;14.65;4.75;;;;;;;;;;4896760;29;20103;-66
2022/11/09 14:10:38;;;;;;;13.73;5.03;;;;;;;;;;4897160;29;20053;-65
2022/11/09 14:13:04;;;;;;;16.30;5.20;;;;;;;;;;4896570;29;20056;-66
2022/11/09 14:15:45;;;;;;;15.80;4.95;;;;;;;;;;4895867;29;20041;-65
2022/11/09 14:18:20;;;;;;;14.27;4.65;;;;;;;;;;4896530;29;20056;-64
2022/11/09 14:20:49;;;;;;;14.32;4.10;;;;;;;;;;4896493;29;20056;-65
2022/11/09 14:23:20;;;;;;;15.80;4.40;;;;;;;;;;4895458;29;20494;-64
2022/11/09 14:25:48;;;;;;;16.40;4.35;;;;;;;;;;4897126;29;20356;-65
2022/11/09 14:28:23;;;;;;;13.90;4.00;;;;;;;;;;4896482;29;20135;-68
2022/11/09 14:30:49;;;;;;;12.65;3.78;;;;;;;;;;4897093;29;20127;-64
2022/11/09 14:33:21;;;;;;;13.18;3.53;;;;;;;;;;4895919;29;20052;-66
2022/11/09 14:35:48;;;;;;;13.65;3.55;;;;;;;;;;4895321;29;20111;-67
2022/11/09 14:38:19;;;;;;;15.68;3.15;;;;;;;;;;4896481;29;20398;-65
2022/11/09 14:40:46;;;;;;;14.68;3.22;;;;;;;;;;4896180;29;20049;-64